Time;durP1;ratioP1;P1;durP2;ratioP2;P2;SDS_P1;SDS_P2;PMS_P1;PMS_P2;Temp;Humidity;BMP_temperature;BMP_pressure;BME280_temperature;BME280_humidity;BME280_pressure;Samples;Min_cycle;Max_cycle;Signal;HPM_P1;HPM_P2
2022/04/26 03:37:44;;;;;;;89.35;33.75;;;;;;;;;;4977629;28;20049;-94
2022/04/26 03:40:11;;;;;;;97.05;34.70;;;;;;;;;;4976224;28;20520;-94
2022/04/26 03:42:39;;;;;;;78.43;31.98;;;;;;;;;;4975523;28;20133;-93
2022/04/26 03:45:06;;;;;;;90.10;34.42;;;;;;;;;;4974698;28;20137;-94
2022/04/26 03:47:33;;;;;;;90.22;35.05;;;;;;;;;;4974422;28;20050;-93
2022/04/26 03:50:00;;;;;;;103.07;36.03;;;;;;;;;;4974867;28;20133;-94
2022/04/26 03:52:27;;;;;;;84.72;33.95;;;;;;;;;;4974101;28;20137;-94
2022/04/26 03:54:54;;;;;;;119.63;47.40;;;;;;;;;;4974164;28;20085;-94
2022/04/26 03:57:22;;;;;;;96.80;41.88;;;;;;;;;;4974082;28;20232;-94
2022/04/26 03:59:49;;;;;;;101.55;39.47;;;;;;;;;;4973848;28;20090;-94
2022/04/26 04:02:16;;;;;;;93.05;39.72;;;;;;;;;;4973473;28;20062;-94
2022/04/26 04:04:43;;;;;;;88.68;35.33;;;;;;;;;;4974563;28;20100;-94
2022/04/26 04:07:10;;;;;;;92.00;33.17;;;;;;;;;;4974471;28;20563;-94
2022/04/26 04:09:37;;;;;;;99.65;39.35;;;;;;;;;;4974005;28;20077;-94
2022/04/26 04:12:05;;;;;;;117.15;57.40;;;;;;;;;;4974083;28;20081;-93
2022/04/26 04:14:32;;;;;;;208.02;108.25;;;;;;;;;;4973821;28;20054;-94
2022/04/26 04:16:59;;;;;;;203.43;114.22;;;;;;;;;;4974758;28;20046;-94
2022/04/26 04:19:29;;;;;;;258.30;141.43;;;;;;;;;;4985117;28;20062;-94
2022/04/26 04:21:57;;;;;;;257.35;160.82;;;;;;;;;;4977400;28;20137;-94
2022/04/26 04:24:26;;;;;;;105.07;43.10;;;;;;;;;;4974332;28;20155;-94
2022/04/26 04:26:53;;;;;;;140.77;68.72;;;;;;;;;;4974776;28;20051;-94
2022/04/26 04:29:20;;;;;;;107.32;50.10;;;;;;;;;;4974028;28;20077;-94
2022/04/26 04:31:49;;;;;;;126.18;65.82;;;;;;;;;;4975281;28;20415;-95
2022/04/26 04:34:16;;;;;;;99.75;43.20;;;;;;;;;;4973949;28;20050;-94
2022/04/26 04:36:43;;;;;;;84.97;35.28;;;;;;;;;;4974113;28;20057;-94
2022/04/26 04:39:13;;;;;;;79.10;35.85;;;;;;;;;;4973980;28;20419;-95
2022/04/26 04:41:40;;;;;;;85.18;34.40;;;;;;;;;;4974391;28;20085;-95
2022/04/26 04:44:07;;;;;;;77.75;32.30;;;;;;;;;;4974400;28;20098;-95
2022/04/26 04:46:35;;;;;;;52.63;26.85;;;;;;;;;;4974192;28;20484;-94
2022/04/26 04:49:03;;;;;;;58.40;32.38;;;;;;;;;;4973825;28;20126;-93
2022/04/26 04:51:30;;;;;;;56.97;29.42;;;;;;;;;;4974323;28;20090;-93
2022/04/26 04:53:57;;;;;;;52.10;26.65;;;;;;;;;;4974738;28;20086;-94
2022/04/26 04:56:26;;;;;;;48.17;25.88;;;;;;;;;;4974893;28;20097;-94
2022/04/26 04:58:54;;;;;;;43.38;24.20;;;;;;;;;;4974752;28;20062;-93
2022/04/26 05:01:21;;;;;;;46.80;26.88;;;;;;;;;;4974627;28;20134;-93
2022/04/26 05:03:49;;;;;;;49.28;25.70;;;;;;;;;;4973115;28;20054;-94
2022/04/26 05:06:16;;;;;;;45.40;24.80;;;;;;;;;;4973599;28;20492;-94
2022/04/26 05:08:45;;;;;;;48.95;25.38;;;;;;;;;;4974317;28;20575;-94
2022/04/26 05:11:12;;;;;;;47.63;24.88;;;;;;;;;;4974171;28;20563;-94
2022/04/26 05:13:39;;;;;;;46.80;26.17;;;;;;;;;;4974551;28;20051;-94
2022/04/26 05:16:07;;;;;;;50.08;27.77;;;;;;;;;;4973258;28;20078;-94
2022/04/26 05:18:34;;;;;;;58.10;33.70;;;;;;;;;;4974037;28;20447;-94
2022/04/26 05:21:01;;;;;;;45.97;26.90;;;;;;;;;;4973584;28;20083;-94
2022/04/26 05:26:14;;;;;;;43.40;25.63;;;;;;;;;;4978472;28;20062;-95
2022/04/26 05:28:41;;;;;;;44.45;28.63;;;;;;;;;;4976636;28;20088;-93
2022/04/26 05:31:08;;;;;;;42.90;25.15;;;;;;;;;;4976776;28;20082;-94
2022/04/26 05:33:35;;;;;;;42.53;25.45;;;;;;;;;;4986227;28;20055;-94
2022/04/26 05:36:03;;;;;;;33.83;22.42;;;;;;;;;;4982798;28;20137;-92
2022/04/26 05:38:30;;;;;;;34.10;22.00;;;;;;;;;;4977050;28;20082;-94
2022/04/26 05:40:57;;;;;;;30.98;22.10;;;;;;;;;;4977563;28;20061;-93
2022/04/26 05:43:24;;;;;;;31.95;21.25;;;;;;;;;;4976735;28;20073;-92
2022/04/26 05:45:52;;;;;;;29.63;20.15;;;;;;;;;;4976824;28;20134;-93
2022/04/26 05:48:19;;;;;;;34.80;20.02;;;;;;;;;;4976587;28;20142;-93
2022/04/26 05:50:46;;;;;;;30.77;21.33;;;;;;;;;;4976751;28;20047;-93
2022/04/26 05:53:13;;;;;;;30.77;21.05;;;;;;;;;;4976961;28;20161;-94
2022/04/26 05:55:40;;;;;;;28.92;19.13;;;;;;;;;;4976549;28;20440;-94
2022/04/26 05:58:07;;;;;;;33.22;20.77;;;;;;;;;;4976695;28;20070;-93
2022/04/26 06:00:38;;;;;;;31.17;20.75;;;;;;;;;;4983360;28;20078;-93
2022/04/26 06:03:05;;;;;;;29.08;20.25;;;;;;;;;;4981555;28;20066;-94
2022/04/26 06:05:33;;;;;;;24.63;17.65;;;;;;;;;;4980054;28;20062;-92
2022/04/26 06:08:00;;;;;;;24.70;17.75;;;;;;;;;;4976575;28;20142;-93
2022/04/26 06:10:28;;;;;;;30.42;18.45;;;;;;;;;;4976491;28;20082;-93
2022/04/26 06:12:55;;;;;;;28.98;20.17;;;;;;;;;;4976493;28;20101;-94
2022/04/26 06:15:22;;;;;;;35.13;21.92;;;;;;;;;;4975977;28;20506;-93
2022/04/26 06:17:50;;;;;;;34.88;21.30;;;;;;;;;;4975741;28;20129;-93
2022/04/26 06:20:17;;;;;;;27.33;18.35;;;;;;;;;;4976137;28;20162;-95
2022/04/26 06:22:44;;;;;;;27.48;18.48;;;;;;;;;;4981352;28;20142;-93
2022/04/26 06:25:11;;;;;;;25.88;18.55;;;;;;;;;;4977063;28;20551;-93
2022/04/26 06:27:39;;;;;;;24.67;17.48;;;;;;;;;;4976022;28;20122;-93
2022/04/26 06:30:06;;;;;;;31.55;17.80;;;;;;;;;;4976038;28;20122;-93
2022/04/26 06:32:33;;;;;;;30.10;18.13;;;;;;;;;;4976155;28;20058;-93
2022/04/26 06:35:01;;;;;;;45.63;27.33;;;;;;;;;;4975470;28;20406;-92
2022/04/26 06:37:28;;;;;;;34.30;20.20;;;;;;;;;;4975927;28;20051;-92
2022/04/26 06:39:55;;;;;;;33.58;20.73;;;;;;;;;;4975737;28;20129;-93
2022/04/26 06:42:22;;;;;;;26.95;17.90;;;;;;;;;;4975463;28;20058;-92
2022/04/26 06:44:49;;;;;;;38.30;19.67;;;;;;;;;;4975794;28;20065;-93
2022/04/26 06:47:16;;;;;;;38.28;19.65;;;;;;;;;;4976098;28;20057;-93
2022/04/26 06:49:43;;;;;;;42.55;19.98;;;;;;;;;;4984904;28;20074;-93
2022/04/26 06:52:10;;;;;;;42.15;20.48;;;;;;;;;;4978799;28;20066;-92
2022/04/26 06:54:38;;;;;;;46.15;20.15;;;;;;;;;;4975516;28;20137;-93
2022/04/26 06:57:06;;;;;;;40.72;20.67;;;;;;;;;;4975463;28;20059;-93
2022/04/26 06:59:33;;;;;;;37.53;20.58;;;;;;;;;;4975393;28;20062;-92
2022/04/26 07:02:01;;;;;;;32.38;18.67;;;;;;;;;;4975127;28;20062;-94
2022/04/26 07:04:28;;;;;;;30.98;17.15;;;;;;;;;;4975226;28;20051;-92
2022/04/26 07:06:56;;;;;;;31.02;17.33;;;;;;;;;;4975611;28;20070;-91
2022/04/26 07:09:23;;;;;;;22.58;15.85;;;;;;;;;;4975334;28;20141;-93
2022/04/26 07:11:52;;;;;;;21.98;15.10;;;;;;;;;;4975358;28;20102;-93
2022/04/26 07:14:19;;;;;;;24.45;15.60;;;;;;;;;;4975182;28;20122;-92
2022/04/26 07:16:48;;;;;;;21.98;16.33;;;;;;;;;;4975276;28;20134;-92
2022/04/26 07:19:17;;;;;;;22.17;15.90;;;;;;;;;;4974947;28;20054;-93
2022/04/26 07:21:46;;;;;;;22.25;14.70;;;;;;;;;;4975367;28;20101;-93
2022/04/26 07:24:31;;;;;;;19.85;15.07;;;;;;;;;;4975158;28;20388;-93
2022/04/26 07:26:59;;;;;;;17.77;14.10;;;;;;;;;;4975294;28;20047;-93
2022/04/26 07:29:26;;;;;;;25.27;14.05;;;;;;;;;;4975932;28;20496;-93
2022/04/26 07:31:53;;;;;;;17.95;13.98;;;;;;;;;;4976077;28;20126;-92
2022/04/26 07:34:24;;;;;;;17.20;13.70;;;;;;;;;;4974682;28;20408;-93
2022/04/26 07:36:53;;;;;;;17.02;14.38;;;;;;;;;;4974785;28;20055;-92
2022/04/26 07:39:20;;;;;;;16.60;13.80;;;;;;;;;;4974739;28;20448;-93
2022/04/26 07:41:48;;;;;;;16.35;12.90;;;;;;;;;;4974785;28;20058;-93
2022/04/26 07:44:16;;;;;;;16.48;14.00;;;;;;;;;;4974642;28;20070;-92
2022/04/26 07:46:47;;;;;;;16.15;13.27;;;;;;;;;;4974095;28;20512;-92
2022/04/26 07:49:15;;;;;;;17.25;14.02;;;;;;;;;;4974461;28;20559;-93
2022/04/26 07:51:43;;;;;;;18.35;14.55;;;;;;;;;;4974836;28;20061;-90
2022/04/26 07:54:10;;;;;;;19.20;14.75;;;;;;;;;;4974358;28;20086;-91
2022/04/26 07:56:38;;;;;;;19.33;14.38;;;;;;;;;;4974356;28;20078;-91
2022/04/26 07:59:05;;;;;;;18.90;14.60;;;;;;;;;;4972994;28;20138;-91
2022/04/26 08:01:35;;;;;;;19.77;14.10;;;;;;;;;;4974194;28;20078;-91
2022/04/26 08:04:03;;;;;;;19.10;14.88;;;;;;;;;;4978715;28;20082;-93
2022/04/26 08:06:30;;;;;;;18.98;14.10;;;;;;;;;;4980249;28;20068;-91
2022/04/26 08:08:58;;;;;;;19.33;14.15;;;;;;;;;;4974154;28;20389;-93
2022/04/26 08:11:28;;;;;;;18.92;13.90;;;;;;;;;;4974094;28;20074;-92
2022/04/26 08:13:56;;;;;;;16.48;14.43;;;;;;;;;;4974211;28;20074;-91
2022/04/26 08:16:23;;;;;;;17.00;14.13;;;;;;;;;;4974149;28;20047;-92
2022/04/26 08:18:50;;;;;;;19.33;13.32;;;;;;;;;;4973937;28;20130;-91
2022/04/26 08:21:18;;;;;;;19.33;13.85;;;;;;;;;;4973933;28;20074;-92
2022/04/26 08:29:18;;;;;;;19.75;12.88;;;;;;;;;;4976887;28;20054;-92
2022/04/26 08:31:46;;;;;;;35.47;29.85;;;;;;;;;;4974017;28;20145;-90
2022/04/26 08:34:13;;;;;;;71.55;52.95;;;;;;;;;;4974104;28;20066;-91
2022/04/26 08:36:40;;;;;;;18.38;14.35;;;;;;;;;;4974179;28;20055;-91
2022/04/26 08:39:07;;;;;;;27.90;22.75;;;;;;;;;;4974150;28;20078;-92
2022/04/26 08:41:34;;;;;;;21.95;18.75;;;;;;;;;;4973414;28;20134;-91
2022/04/26 08:44:07;;;;;;;18.25;15.55;;;;;;;;;;4973695;28;20071;-92
2022/04/26 08:52:07;;;;;;;13.65;11.68;;;;;;;;;;4975830;28;20507;-92
2022/04/26 08:54:34;;;;;;;15.90;12.70;;;;;;;;;;4974581;28;20554;-93
2022/04/26 08:57:08;;;;;;;20.90;13.68;;;;;;;;;;4978771;28;20050;-94
2022/04/26 08:59:38;;;;;;;16.13;13.23;;;;;;;;;;4981643;28;20133;-94
2022/04/26 09:02:19;;;;;;;17.88;13.00;;;;;;;;;;4978854;28;20138;-93
2022/04/26 09:04:49;;;;;;;17.50;12.75;;;;;;;;;;4977390;28;20047;-92
2022/04/26 09:07:30;;;;;;;14.35;12.13;;;;;;;;;;4978826;28;20475;-92
2022/04/26 09:10:03;;;;;;;15.32;11.30;;;;;;;;;;4978173;28;20514;-94
2022/04/26 09:12:30;;;;;;;16.88;12.10;;;;;;;;;;4979728;28;20058;-92
2022/04/26 09:15:13;;;;;;;13.27;11.63;;;;;;;;;;4977804;28;20065;-93
2022/04/26 09:17:41;;;;;;;11.95;10.75;;;;;;;;;;4976888;28;20145;-93
2022/04/26 09:20:09;;;;;;;15.23;10.48;;;;;;;;;;4984306;28;20054;-93
2022/04/26 09:22:38;;;;;;;11.50;10.30;;;;;;;;;;4985580;28;20046;-93
2022/04/26 09:25:06;;;;;;;14.18;9.43;;;;;;;;;;4978065;28;20526;-93
2022/04/26 09:27:38;;;;;;;10.07;9.10;;;;;;;;;;4980435;28;20401;-93
2022/04/26 09:30:09;;;;;;;10.25;9.15;;;;;;;;;;4975575;28;20074;-93
2022/04/26 09:32:46;;;;;;;10.80;9.10;;;;;;;;;;4977940;28;20055;-91
2022/04/26 09:35:20;;;;;;;14.80;9.05;;;;;;;;;;4976961;28;20137;-92
2022/04/26 09:37:47;;;;;;;11.93;8.68;;;;;;;;;;4976830;28;20146;-93
2022/04/26 09:40:22;;;;;;;9.68;8.68;;;;;;;;;;4976556;28;20051;-94
2022/04/26 09:42:50;;;;;;;9.65;8.52;;;;;;;;;;4976315;28;20129;-92
2022/04/26 09:45:17;;;;;;;11.65;8.73;;;;;;;;;;4976608;28;20057;-93
2022/04/26 09:47:45;;;;;;;9.93;8.82;;;;;;;;;;4976393;28;20051;-93
2022/04/26 09:50:14;;;;;;;10.50;8.38;;;;;;;;;;4976440;28;20065;-94
2022/04/26 09:52:41;;;;;;;10.90;8.73;;;;;;;;;;4976627;28;20059;-92
2022/04/26 09:55:10;;;;;;;9.85;8.85;;;;;;;;;;4976507;28;20100;-93
2022/04/26 09:57:38;;;;;;;12.07;10.00;;;;;;;;;;4977762;28;20051;-93
2022/04/26 10:00:14;;;;;;;9.50;8.23;;;;;;;;;;4976229;28;20074;-93
2022/04/26 10:02:46;;;;;;;9.52;8.63;;;;;;;;;;4964802;28;20070;-93
2022/04/26 10:05:21;;;;;;;12.20;9.32;;;;;;;;;;4960989;28;20055;-94
2022/04/26 10:07:51;;;;;;;11.65;10.30;;;;;;;;;;4956670;28;20055;-92
2022/04/26 10:10:23;;;;;;;12.88;11.20;;;;;;;;;;4957057;29;20134;-92
2022/04/26 10:15:36;;;;;;;12.70;8.77;;;;;;;;;;4957574;28;20126;-93
2022/04/26 10:18:25;;;;;;;10.20;8.57;;;;;;;;;;4957182;28;20053;-92
2022/04/26 10:20:52;;;;;;;9.55;8.07;;;;;;;;;;4956936;29;20051;-94
2022/04/26 10:23:19;;;;;;;8.48;7.28;;;;;;;;;;4956856;29;20492;-92
2022/04/26 10:26:05;;;;;;;14.43;11.05;;;;;;;;;;4956758;29;20452;-91
2022/04/26 10:28:32;;;;;;;9.00;8.10;;;;;;;;;;4955866;29;20089;-94
2022/04/26 10:30:59;;;;;;;6.97;6.28;;;;;;;;;;4957543;28;20083;-91
2022/04/26 10:33:40;;;;;;;6.20;5.07;;;;;;;;;;4956589;29;20059;-92
2022/04/26 10:36:17;;;;;;;7.97;5.15;;;;;;;;;;4956768;29;20054;-94
2022/04/26 10:39:04;;;;;;;4.60;4.30;;;;;;;;;;4962090;28;20206;-93
2022/04/26 10:41:41;;;;;;;6.13;3.80;;;;;;;;;;4956770;29;20154;-92
2022/04/26 10:44:17;;;;;;;3.20;2.88;;;;;;;;;;4961021;28;20139;-94
2022/04/26 10:46:50;;;;;;;3.00;2.75;;;;;;;;;;4959900;28;20484;-96
2022/04/26 10:49:24;;;;;;;3.45;2.47;;;;;;;;;;4958045;29;20138;-95
2022/04/26 10:51:57;;;;;;;4.95;2.83;;;;;;;;;;4956873;29;20055;-94
2022/04/26 10:54:44;;;;;;;2.38;2.28;;;;;;;;;;4958976;29;20085;-96
2022/04/26 10:57:11;;;;;;;2.60;2.42;;;;;;;;;;4964893;29;20051;-95
2022/04/26 10:59:42;;;;;;;4.18;3.10;;;;;;;;;;5007046;23;20085;-84
2022/04/26 11:02:29;;;;;;;3.03;2.80;;;;;;;;;;5051335;28;20061;-85
2022/04/26 11:05:02;;;;;;;3.33;2.60;;;;;;;;;;5025027;28;20045;-84
2022/04/26 11:07:34;;;;;;;7.80;3.15;;;;;;;;;;5038707;28;20485;-83
2022/04/26 11:10:02;;;;;;;3.70;2.78;;;;;;;;;;5018935;28;20056;-84
2022/04/26 11:12:30;;;;;;;3.22;2.92;;;;;;;;;;5018552;28;20551;-84
2022/04/26 11:14:59;;;;;;;3.40;3.15;;;;;;;;;;5017787;28;20046;-83
2022/04/26 11:17:27;;;;;;;3.05;2.85;;;;;;;;;;5020510;28;20542;-84
2022/04/26 11:19:55;;;;;;;3.33;3.03;;;;;;;;;;5019136;28;20049;-84
2022/04/26 11:22:23;;;;;;;3.03;2.83;;;;;;;;;;5018201;28;20072;-83
2022/04/26 11:28:01;;;;;;;2.80;2.60;;;;;;;;;;5035365;28;20053;-83
2022/04/26 11:30:42;;;;;;;3.15;2.40;;;;;;;;;;5017486;28;20100;-82
2022/04/26 11:33:13;;;;;;;4.30;2.40;;;;;;;;;;5018469;28;20054;-83
2022/04/26 11:35:40;;;;;;;3.03;2.72;;;;;;;;;;5018080;28;20111;-84
2022/04/26 11:38:09;;;;;;;2.45;2.30;;;;;;;;;;5034998;28;20054;-83
2022/04/26 11:40:54;;;;;;;2.83;2.53;;;;;;;;;;5017263;28;20049;-83
2022/04/26 11:43:23;;;;;;;2.90;2.53;;;;;;;;;;5017179;28;20068;-82
2022/04/26 11:45:51;;;;;;;2.65;2.20;;;;;;;;;;5017244;28;20470;-83
2022/04/26 11:48:20;;;;;;;3.35;2.90;;;;;;;;;;5036754;28;20467;-84
2022/04/26 11:50:48;;;;;;;2.40;2.28;;;;;;;;;;5018524;28;20057;-83
2022/04/26 11:53:16;;;;;;;3.83;2.97;;;;;;;;;;5017912;28;20128;-82
2022/04/26 11:56:00;;;;;;;5.18;2.80;;;;;;;;;;5019097;28;20460;-83
2022/04/26 11:58:27;;;;;;;19.67;4.30;;;;;;;;;;5018221;28;20064;-82
2022/04/26 12:00:59;;;;;;;5.28;4.15;;;;;;;;;;5014673;28;20113;-83
2022/04/26 12:03:49;;;;;;;5.80;4.93;;;;;;;;;;5014688;28;20056;-82
2022/04/26 12:06:19;;;;;;;6.60;5.75;;;;;;;;;;5031389;28;20049;-83
2022/04/26 12:09:01;;;;;;;7.28;5.18;;;;;;;;;;5014948;28;20050;-82
2022/04/26 12:11:36;;;;;;;7.13;4.40;;;;;;;;;;5022392;28;20063;-82
2022/04/26 12:14:14;;;;;;;7.10;4.97;;;;;;;;;;5021419;28;20488;-82
2022/04/26 12:16:43;;;;;;;5.45;4.95;;;;;;;;;;5019946;28;20623;-83
2022/04/26 12:19:10;;;;;;;6.35;5.50;;;;;;;;;;5015538;28;20054;-82
2022/04/26 12:21:52;;;;;;;6.80;5.50;;;;;;;;;;5014816;28;20052;-82
2022/04/26 12:24:24;;;;;;;7.18;5.20;;;;;;;;;;5015833;28;20058;-84
2022/04/26 12:26:53;;;;;;;6.50;5.90;;;;;;;;;;5015392;28;20567;-84
2022/04/26 12:29:44;;;;;;;6.75;5.55;;;;;;;;;;5014709;28;20100;-85
2022/04/26 12:32:17;;;;;;;9.50;6.70;;;;;;;;;;5007520;28;20050;-82
2022/04/26 12:34:58;;;;;;;8.23;6.45;;;;;;;;;;5014939;28;20050;-84
2022/04/26 12:37:29;;;;;;;10.13;6.43;;;;;;;;;;5014998;28;20050;-84
2022/04/26 12:39:58;;;;;;;18.08;6.55;;;;;;;;;;5016448;28;20054;-83
2022/04/26 12:42:28;;;;;;;7.60;5.55;;;;;;;;;;5014569;28;20052;-84
2022/04/26 12:44:56;;;;;;;6.07;5.38;;;;;;;;;;5016386;28;20069;-84
2022/04/26 12:53:00;;;;;;;6.25;5.75;;;;;;;;;;5015891;28;20058;-84
2022/04/26 12:55:40;;;;;;;8.60;5.82;;;;;;;;;;5017080;28;20046;-86
2022/04/26 12:58:09;;;;;;;8.75;6.10;;;;;;;;;;5019806;28;20061;-85
2022/04/26 13:00:39;;;;;;;6.63;5.90;;;;;;;;;;5016691;28;20054;-85
2022/04/26 13:03:09;;;;;;;7.60;5.75;;;;;;;;;;5017884;28;20089;-85
2022/04/26 13:05:41;;;;;;;8.18;6.35;;;;;;;;;;5019559;28;20050;-85
2022/04/26 13:08:09;;;;;;;9.80;5.47;;;;;;;;;;5023143;28;20046;-84
2022/04/26 13:10:40;;;;;;;7.32;5.47;;;;;;;;;;5026579;28;20073;-85
2022/04/26 13:13:08;;;;;;;6.63;5.60;;;;;;;;;;5023981;28;20045;-85
2022/04/26 13:15:41;;;;;;;10.40;6.22;;;;;;;;;;5020534;28;20097;-85
2022/04/26 13:18:10;;;;;;;8.20;5.63;;;;;;;;;;5016851;28;20050;-84
2022/04/26 13:20:38;;;;;;;9.48;6.03;;;;;;;;;;5013595;28;20104;-85
2022/04/26 13:23:11;;;;;;;7.22;6.50;;;;;;;;;;5019217;28;20071;-86
2022/04/26 13:25:39;;;;;;;11.68;6.60;;;;;;;;;;5027589;28;20049;-86
2022/04/26 13:28:08;;;;;;;6.88;6.28;;;;;;;;;;5032235;28;20113;-86
2022/04/26 13:30:36;;;;;;;8.80;6.65;;;;;;;;;;5032945;28;20045;-86
2022/04/26 13:33:10;;;;;;;6.32;5.82;;;;;;;;;;5032443;28;20041;-85
2022/04/26 13:35:44;;;;;;;6.43;5.90;;;;;;;;;;5032882;28;20052;-86
2022/04/26 13:38:13;;;;;;;6.72;6.15;;;;;;;;;;5032834;28;20046;-85
2022/04/26 13:40:41;;;;;;;7.05;6.05;;;;;;;;;;5032930;28;20115;-85
2022/04/26 13:43:10;;;;;;;6.75;6.05;;;;;;;;;;5034966;28;20136;-85
2022/04/26 13:45:57;;;;;;;7.25;5.25;;;;;;;;;;5038305;28;20049;-85
2022/04/26 13:48:26;;;;;;;6.35;5.72;;;;;;;;;;5037026;28;20048;-85
2022/04/26 13:50:53;;;;;;;7.88;6.20;;;;;;;;;;5037179;28;20135;-85
2022/04/26 13:53:29;;;;;;;7.20;5.78;;;;;;;;;;5037944;28;20072;-85
2022/04/26 13:55:56;;;;;;;6.70;6.10;;;;;;;;;;5036501;28;20504;-85
2022/04/26 13:58:26;;;;;;;6.63;5.57;;;;;;;;;;5036815;28;20068;-85
2022/04/26 14:00:54;;;;;;;6.28;5.18;;;;;;;;;;5036658;28;20107;-85
2022/04/26 14:03:22;;;;;;;6.55;5.95;;;;;;;;;;5036542;28;20049;-85
2022/04/26 14:05:49;;;;;;;6.93;6.07;;;;;;;;;;5036202;28;20495;-85
2022/04/26 14:08:17;;;;;;;6.75;6.10;;;;;;;;;;5036932;28;20444;-85
2022/04/26 14:10:44;;;;;;;6.50;5.70;;;;;;;;;;5038154;28;20132;-85
2022/04/26 14:13:12;;;;;;;6.05;5.45;;;;;;;;;;5036562;28;20144;-85
2022/04/26 14:24:05;;;;;;;5.35;4.95;;;;;;;;;;5037617;28;20041;-85
2022/04/26 14:26:32;;;;;;;7.32;6.63;;;;;;;;;;5035690;28;20045;-85
2022/04/26 14:29:00;;;;;;;6.40;5.47;;;;;;;;;;5036734;28;20046;-85
2022/04/26 14:31:27;;;;;;;8.57;6.90;;;;;;;;;;5038987;28;20080;-85
2022/04/26 14:33:56;;;;;;;7.93;6.20;;;;;;;;;;5040143;28;20049;-86
2022/04/26 14:36:23;;;;;;;8.15;6.85;;;;;;;;;;5044781;23;20113;-86
2022/04/26 14:39:12;;;;;;;9.55;7.13;;;;;;;;;;5028252;28;20042;-84
2022/04/26 14:41:43;;;;;;;15.50;7.53;;;;;;;;;;5032012;28;20046;-84
2022/04/26 14:44:10;;;;;;;10.13;7.15;;;;;;;;;;5031927;28;20041;-85
2022/04/26 14:46:37;;;;;;;14.88;8.75;;;;;;;;;;5047946;28;20060;-84
2022/04/26 14:49:06;;;;;;;12.98;9.10;;;;;;;;;;5048422;28;20042;-84
2022/04/26 14:51:33;;;;;;;12.48;8.32;;;;;;;;;;5049130;28;20184;-84
2022/04/26 14:54:00;;;;;;;12.20;8.70;;;;;;;;;;5017388;28;20141;-82
2022/04/26 15:06:49;;;;;;;16.55;10.77;;;;;;;;;;5083103;22;20040;-92
2022/04/26 15:17:35;;;;;;;12.10;10.55;;;;;;;;;;5075666;28;20048;-94
2022/04/26 15:20:03;;;;;;;16.02;11.95;;;;;;;;;;5077079;28;20106;-92
2022/04/26 15:22:30;;;;;;;27.77;13.68;;;;;;;;;;5071598;28;20110;-94
2022/04/26 15:25:00;;;;;;;19.65;13.48;;;;;;;;;;5061162;28;20075;-94
2022/04/26 15:27:27;;;;;;;21.88;15.45;;;;;;;;;;5067275;28;20148;-93
2022/04/26 15:29:54;;;;;;;24.67;14.65;;;;;;;;;;5073542;28;20047;-91
2022/04/26 15:32:23;;;;;;;23.40;16.13;;;;;;;;;;5073415;28;20139;-90
2022/04/26 15:34:50;;;;;;;24.00;17.13;;;;;;;;;;5072874;28;20074;-91
2022/04/26 15:37:18;;;;;;;18.20;15.40;;;;;;;;;;5073149;28;20051;-89
2022/04/26 15:39:47;;;;;;;22.42;15.45;;;;;;;;;;5068386;28;20139;-90
2022/04/26 15:42:17;;;;;;;22.88;15.90;;;;;;;;;;5073198;28;20140;-90
2022/04/26 15:44:50;;;;;;;36.60;17.02;;;;;;;;;;5071725;28;20044;-92
2022/04/26 15:47:17;;;;;;;26.77;17.83;;;;;;;;;;5073829;28;20072;-91
2022/04/26 15:49:45;;;;;;;28.38;19.00;;;;;;;;;;5080469;28;20075;-93
2022/04/26 15:52:13;;;;;;;28.35;17.25;;;;;;;;;;5073622;28;20080;-93
2022/04/26 15:54:43;;;;;;;22.63;15.25;;;;;;;;;;5073701;28;20103;-92
2022/04/26 15:57:11;;;;;;;28.23;15.70;;;;;;;;;;5071897;28;20146;-93
2022/04/26 15:59:39;;;;;;;31.25;18.63;;;;;;;;;;5067133;28;20127;-93
2022/04/26 16:02:07;;;;;;;24.17;17.65;;;;;;;;;;5072960;28;20048;-93
2022/04/26 16:04:35;;;;;;;28.00;18.38;;;;;;;;;;5066589;28;20059;-93
2022/04/26 16:07:04;;;;;;;32.08;20.88;;;;;;;;;;5073277;28;20048;-94
2022/04/26 16:20:39;;;;;;;18.38;13.75;;;;;;;;;;5069413;28;20059;-93
2022/04/26 16:23:07;;;;;;;15.10;13.43;;;;;;;;;;5076382;28;20051;-95
2022/04/26 16:25:34;;;;;;;21.88;14.75;;;;;;;;;;5072984;28;20051;-95
2022/04/26 16:28:02;;;;;;;15.48;13.65;;;;;;;;;;5076851;28;20059;-93
2022/04/26 16:30:34;;;;;;;19.00;14.25;;;;;;;;;;5071758;28;20059;-95
2022/04/26 16:33:04;;;;;;;21.00;15.88;;;;;;;;;;5077719;28;20543;-95
2022/04/26 16:35:32;;;;;;;21.13;16.35;;;;;;;;;;5068885;28;20052;-95
2022/04/26 16:37:59;;;;;;;21.33;17.48;;;;;;;;;;5075819;28;20110;-96
2022/04/26 16:40:28;;;;;;;25.38;18.58;;;;;;;;;;5077928;28;20083;-95
2022/04/26 16:42:55;;;;;;;23.05;18.60;;;;;;;;;;5059291;28;20110;-94
2022/04/26 16:45:23;;;;;;;30.75;22.83;;;;;;;;;;5079009;28;20401;-93
2022/04/26 16:47:52;;;;;;;28.50;20.70;;;;;;;;;;5073606;28;20412;-92
2022/04/26 16:50:20;;;;;;;32.95;24.40;;;;;;;;;;5073762;28;20056;-93
2022/04/26 16:52:49;;;;;;;30.35;22.38;;;;;;;;;;5069559;28;20068;-94
2022/04/26 16:55:17;;;;;;;32.85;22.95;;;;;;;;;;5080583;28;20069;-95
2022/04/26 16:57:45;;;;;;;38.13;22.92;;;;;;;;;;5068611;28;20114;-94
2022/04/26 17:00:14;;;;;;;32.42;23.15;;;;;;;;;;5073797;28;20048;-94
2022/04/26 17:02:42;;;;;;;39.90;23.70;;;;;;;;;;5068715;28;20051;-94
2022/04/26 17:05:11;;;;;;;33.75;22.23;;;;;;;;;;5075472;28;20067;-94
2022/04/26 17:07:45;;;;;;;32.97;21.25;;;;;;;;;;5078050;28;20036;-95
2022/04/26 17:10:12;;;;;;;38.75;21.90;;;;;;;;;;5076937;28;20052;-94
2022/04/26 17:12:39;;;;;;;43.75;28.20;;;;;;;;;;5068212;28;20132;-94
2022/04/26 17:15:10;;;;;;;41.83;26.33;;;;;;;;;;5072876;28;20048;-92
2022/04/26 17:17:38;;;;;;;40.50;25.75;;;;;;;;;;5067266;28;20112;-94
2022/04/26 17:20:05;;;;;;;42.85;24.88;;;;;;;;;;5076378;28;20139;-94
2022/04/26 17:22:32;;;;;;;36.47;24.88;;;;;;;;;;5069002;28;20084;-94
2022/04/26 17:25:15;;;;;;;37.50;25.25;;;;;;;;;;5076295;28;20056;-93
2022/04/26 17:28:09;;;;;;;34.92;24.15;;;;;;;;;;5074130;28;20048;-93
2022/04/26 17:30:37;;;;;;;37.15;26.02;;;;;;;;;;5068721;28;20131;-92
2022/04/26 17:33:05;;;;;;;33.92;23.90;;;;;;;;;;5068147;28;20040;-91
2022/04/26 17:35:32;;;;;;;38.28;25.00;;;;;;;;;;5068802;28;20052;-91
2022/04/26 17:37:59;;;;;;;38.40;27.30;;;;;;;;;;5071128;28;20049;-91
2022/04/26 17:40:27;;;;;;;35.03;25.40;;;;;;;;;;5066147;28;20044;-91
2022/04/26 17:42:55;;;;;;;34.28;24.73;;;;;;;;;;5075104;28;20521;-91
2022/04/26 17:45:22;;;;;;;29.90;22.83;;;;;;;;;;5066762;28;20106;-92
2022/04/26 17:47:49;;;;;;;30.83;23.20;;;;;;;;;;5075932;28;20526;-91
2022/04/26 17:50:23;;;;;;;34.85;24.75;;;;;;;;;;5075780;28;20109;-92
2022/04/26 17:58:21;;;;;;;52.97;27.45;;;;;;;;;;5076385;28;20106;-91
2022/04/26 18:00:49;;;;;;;46.50;28.40;;;;;;;;;;5070991;28;20052;-90
2022/04/26 18:03:16;;;;;;;39.08;25.30;;;;;;;;;;5075127;28;20076;-90
2022/04/26 18:05:44;;;;;;;43.78;26.83;;;;;;;;;;5069999;28;20141;-89
2022/04/26 18:08:11;;;;;;;36.63;24.77;;;;;;;;;;5075447;28;20072;-88
2022/04/26 18:10:41;;;;;;;36.72;25.13;;;;;;;;;;5076126;28;20063;-89
2022/04/26 18:13:08;;;;;;;43.08;27.35;;;;;;;;;;5074563;28;20082;-90
2022/04/26 18:15:35;;;;;;;39.15;24.13;;;9.30;99.90;;;;;;5068515;28;20451;-90
2022/04/26 18:18:02;;;;;;;25.80;12.57;;;;;;;;;;5075820;28;20408;-89
2022/04/26 18:20:32;;;;;;;20.00;10.00;;;;;;;;;;5076724;28;20055;-88
2022/04/26 18:22:59;;;;;;;11.68;7.10;;;;;;;;;;5078976;28;20076;-89
2022/04/26 18:28:14;;;;;;;12.90;7.88;;;;;;;;;;5075633;28;20084;-88
2022/04/26 18:30:41;;;;;;;9.90;7.50;;;;;;;;;;5075079;28;20112;-88
2022/04/26 18:33:08;;;;;;;12.48;10.43;;;;;;;;;;5072633;28;20101;-88
2022/04/26 18:35:36;;;;;;;17.25;12.30;;;;;;;;;;5075331;28;20143;-88
2022/04/26 18:38:03;;;;;;;17.10;12.40;;;;;;;;;;5075391;28;20131;-89
2022/04/26 18:40:32;;;;;;;16.13;12.52;;;;;;;;;;5067380;28;20056;-88
2022/04/26 18:42:59;;;;;;;16.60;13.57;;;;;;;;;;5074001;28;20054;-88
2022/04/26 18:45:26;;;;;;;32.40;14.40;;;;;;;;;;5075089;28;20084;-88
2022/04/26 18:47:56;;;;;;;16.90;13.38;;;;;;;;;;5075419;28;20058;-88
2022/04/26 18:50:24;;;;;;;19.92;14.20;;;;;;;;;;5066228;28;20521;-89
2022/04/26 18:52:52;;;;;;;17.92;13.90;;;;;;;;;;5073965;28;20048;-89
2022/04/26 18:55:19;;;;;;;19.60;14.65;;;;;;;;;;5073712;28;20044;-87
2022/04/26 18:57:46;;;;;;;15.55;13.40;;;;;;;;;;5069025;28;20127;-88
2022/04/26 19:00:17;;;;;;;18.40;14.85;;;;;;;;;;5074555;28;20501;-88
2022/04/26 19:02:44;;;;;;;20.73;16.45;;;;;;;;;;5068503;28;20409;-89
2022/04/26 19:05:11;;;;;;;19.30;14.93;;;;;;;;;;5074083;28;20416;-88
2022/04/26 19:07:39;;;;;;;17.27;14.48;;;;;;;;;;5067332;28;20496;-90
2022/04/26 19:12:52;;;;;;;18.00;14.43;;;;;;;;;;5074143;28;20147;-90
2022/04/26 19:15:19;;;;;;;15.35;13.73;;;;;;;;;;5074014;28;20127;-89
2022/04/26 19:17:46;;;;;;;16.90;14.45;;;;;;;;;;5073967;28;20059;-89
2022/04/26 19:20:14;;;;;;;17.20;14.50;;;;;;;;;;5072448;28;20408;-91
2022/04/26 19:22:41;;;;;;;16.75;14.73;;;;;;;;;;5073848;28;20127;-90
2022/04/26 19:25:08;;;;;;;15.68;12.93;;;;;;;;;;5074020;28;20469;-89
2022/04/26 19:27:35;;;;;;;15.25;13.50;;;;;;;;;;5066794;28;20460;-90